Terminal Aerodrome Forecast
Issued by NWS Greer, SC

Home | Current Version | Previous Version | Text Only | Print | Product List | Glossary On
Versions: 1 2 3 4 5 6 7 8 9 10 11 12 13 14 15 16 17 18 19 20 21
018
FTUS42 KGSP 242321
TAFGSP
TAF
KGSP 242321Z 2500/2524 18005KT P6SM FEW050 SCT250
      TEMPO 2500/2504 BKN050
     FM250400 19005KT P6SM BKN050
     FM250800 19006KT P6SM BKN015
     FM250900 19005KT 1SM BR VCSH BKN003
     FM251300 22009KT P6SM BKN010
     FM251500 24013G21KT P6SM BKN060=

USA.gov is the U.S. government's official web portal to all federal, state and local government web resources and services.